sensor_id;sensor_type;location;lat;lon;timestamp;P1;P2;P0
64114;PMS5003;62188;35.640;139.748;2022-11-02T00:01:07;5;5;
64114;PMS5003;62188;35.640;139.748;2022-11-02T00:03:27;8;6;
64114;PMS5003;62188;35.640;139.748;2022-11-02T00:05:53;5;5;
64114;PMS5003;62188;35.640;139.748;2022-11-02T00:08:18;5;4;
64114;PMS5003;62188;35.640;139.748;2022-11-02T00:10:43;6;5;
64114;PMS5003;62188;35.640;139.748;2022-11-02T00:13:09;5;5;
64114;PMS5003;62188;35.640;139.748;2022-11-02T00:15:34;10;9;
64114;PMS5003;62188;35.640;139.748;2022-11-02T00:18:00;6;6;
64114;PMS5003;62188;35.640;139.748;2022-11-02T00:20:25;5;5;
64114;PMS5003;62188;35.640;139.748;2022-11-02T00:22:51;6;5;
64114;PMS5003;62188;35.640;139.748;2022-11-02T00:25:16;8;6;
64114;PMS5003;62188;35.640;139.748;2022-11-02T00:27:41;7;6;
64114;PMS5003;62188;35.640;139.748;2022-11-02T00:30:07;6;6;
64114;PMS5003;62188;35.640;139.748;2022-11-02T00:32:32;4;4;
64114;PMS5003;62188;35.640;139.748;2022-11-02T00:34:58;5;5;
64114;PMS5003;62188;35.640;139.748;2022-11-02T00:37:23;4;4;
64114;PMS5003;62188;35.640;139.748;2022-11-02T00:39:48;6;5;
64114;PMS5003;62188;35.640;139.748;2022-11-02T00:42:14;6;5;
64114;PMS5003;62188;35.640;139.748;2022-11-02T00:44:39;3;3;
64114;PMS5003;62188;35.640;139.748;2022-11-02T00:47:05;4;4;
64114;PMS5003;62188;35.640;139.748;2022-11-02T00:49:30;4;4;
64114;PMS5003;62188;35.640;139.748;2022-11-02T00:51:55;4;4;
64114;PMS5003;62188;35.640;139.748;2022-11-02T00:54:21;6;6;
64114;PMS5003;62188;35.640;139.748;2022-11-02T00:56:46;6;6;
64114;PMS5003;62188;35.640;139.748;2022-11-02T00:59:11;7;6;
64114;PMS5003;62188;35.640;139.748;2022-11-02T01:01:37;4;4;
64114;PMS5003;62188;35.640;139.748;2022-11-02T01:04:02;5;5;
64114;PMS5003;62188;35.640;139.748;2022-11-02T01:06:27;6;5;
64114;PMS5003;62188;35.640;139.748;2022-11-02T01:08:53;6;5;
64114;PMS5003;62188;35.640;139.748;2022-11-02T01:11:19;5;5;
64114;PMS5003;62188;35.640;139.748;2022-11-02T01:13:44;8;8;
64114;PMS5003;62188;35.640;139.748;2022-11-02T01:16:09;7;6;
64114;PMS5003;62188;35.640;139.748;2022-11-02T01:18:34;6;6;
64114;PMS5003;62188;35.640;139.748;2022-11-02T01:21:00;7;7;
64114;PMS5003;62188;35.640;139.748;2022-11-02T01:23:25;9;7;
64114;PMS5003;62188;35.640;139.748;2022-11-02T01:25:50;7;7;
64114;PMS5003;62188;35.640;139.748;2022-11-02T01:28:16;8;8;
64114;PMS5003;62188;35.640;139.748;2022-11-02T01:30:41;7;7;
64114;PMS5003;62188;35.640;139.748;2022-11-02T01:33:07;7;7;
64114;PMS5003;62188;35.640;139.748;2022-11-02T01:35:32;7;7;
64114;PMS5003;62188;35.640;139.748;2022-11-02T01:37:57;5;5;
64114;PMS5003;62188;35.640;139.748;2022-11-02T01:40:23;7;7;
64114;PMS5003;62188;35.640;139.748;2022-11-02T01:42:48;6;6;
64114;PMS5003;62188;35.640;139.748;2022-11-02T01:45:14;5;5;
64114;PMS5003;62188;35.640;139.748;2022-11-02T01:47:39;6;5;
64114;PMS5003;62188;35.640;139.748;2022-11-02T01:50:05;7;7;
64114;PMS5003;62188;35.640;139.748;2022-11-02T01:52:31;4;4;
64114;PMS5003;62188;35.640;139.748;2022-11-02T01:54:57;7;7;
64114;PMS5003;62188;35.640;139.748;2022-11-02T01:57:21;7;7;
64114;PMS5003;62188;35.640;139.748;2022-11-02T01:59:46;7;7;
64114;PMS5003;62188;35.640;139.748;2022-11-02T02:02:12;5;5;
64114;PMS5003;62188;35.640;139.748;2022-11-02T02:04:36;4;4;
64114;PMS5003;62188;35.640;139.748;2022-11-02T02:07:01;7;7;
64114;PMS5003;62188;35.640;139.748;2022-11-02T02:09:27;7;6;
64114;PMS5003;62188;35.640;139.748;2022-11-02T02:11:52;7;6;
64114;PMS5003;62188;35.640;139.748;2022-11-02T02:14:18;6;6;
64114;PMS5003;62188;35.640;139.748;2022-11-02T02:16:47;6;6;
64114;PMS5003;62188;35.640;139.748;2022-11-02T02:19:11;7;7;
64114;PMS5003;62188;35.640;139.748;2022-11-02T02:21:36;7;7;
64114;PMS5003;62188;35.640;139.748;2022-11-02T02:28:50;5;4;
64114;PMS5003;62188;35.640;139.748;2022-11-02T02:31:16;5;5;
64114;PMS5003;62188;35.640;139.748;2022-11-02T02:33:42;5;5;
64114;PMS5003;62188;35.640;139.748;2022-11-02T02:36:07;4;4;
64114;PMS5003;62188;35.640;139.748;2022-11-02T02:38:32;6;5;
64114;PMS5003;62188;35.640;139.748;2022-11-02T02:40:57;7;7;
64114;PMS5003;62188;35.640;139.748;2022-11-02T02:43:23;6;6;
64114;PMS5003;62188;35.640;139.748;2022-11-02T02:45:49;9;8;
64114;PMS5003;62188;35.640;139.748;2022-11-02T02:48:13;5;5;
64114;PMS5003;62188;35.640;139.748;2022-11-02T02:50:39;8;8;
64114;PMS5003;62188;35.640;139.748;2022-11-02T02:53:03;8;8;
64114;PMS5003;62188;35.640;139.748;2022-11-02T02:55:30;6;6;
64114;PMS5003;62188;35.640;139.748;2022-11-02T02:57:53;6;6;
64114;PMS5003;62188;35.640;139.748;2022-11-02T03:00:19;6;6;
64114;PMS5003;62188;35.640;139.748;2022-11-02T03:02:44;7;7;
64114;PMS5003;62188;35.640;139.748;2022-11-02T03:07:35;8;7;
64114;PMS5003;62188;35.640;139.748;2022-11-02T03:10:02;9;8;
64114;PMS5003;62188;35.640;139.748;2022-11-02T03:12:32;8;7;
64114;PMS5003;62188;35.640;139.748;2022-11-02T03:14:55;8;8;
64114;PMS5003;62188;35.640;139.748;2022-11-02T03:17:17;8;8;
64114;PMS5003;62188;35.640;139.748;2022-11-02T03:19:44;7;6;
64114;PMS5003;62188;35.640;139.748;2022-11-02T03:22:07;7;7;
64114;PMS5003;62188;35.640;139.748;2022-11-02T03:24:33;6;5;
64114;PMS5003;62188;35.640;139.748;2022-11-02T03:27:02;6;6;
64114;PMS5003;62188;35.640;139.748;2022-11-02T03:29:24;5;5;
64114;PMS5003;62188;35.640;139.748;2022-11-02T03:31:50;6;6;
64114;PMS5003;62188;35.640;139.748;2022-11-02T03:34:15;5;5;
64114;PMS5003;62188;35.640;139.748;2022-11-02T03:36:44;5;4;
64114;PMS5003;62188;35.640;139.748;2022-11-02T03:39:05;3;3;
64114;PMS5003;62188;35.640;139.748;2022-11-02T03:41:29;9;8;
64114;PMS5003;62188;35.640;139.748;2022-11-02T03:43:57;8;8;
64114;PMS5003;62188;35.640;139.748;2022-11-02T03:46:20;7;7;
64114;PMS5003;62188;35.640;139.748;2022-11-02T03:48:46;7;6;
64114;PMS5003;62188;35.640;139.748;2022-11-02T03:51:11;5;5;
64114;PMS5003;62188;35.640;139.748;2022-11-02T03:53:46;7;6;
64114;PMS5003;62188;35.640;139.748;2022-11-02T03:56:03;9;8;
64114;PMS5003;62188;35.640;139.748;2022-11-02T03:58:27;9;8;
64114;PMS5003;62188;35.640;139.748;2022-11-02T04:00:53;11;8;
64114;PMS5003;62188;35.640;139.748;2022-11-02T04:03:17;7;7;
64114;PMS5003;62188;35.640;139.748;2022-11-02T04:05:43;6;6;
64114;PMS5003;62188;35.640;139.748;2022-11-02T04:08:08;9;9;
64114;PMS5003;62188;35.640;139.748;2022-11-02T04:10:33;8;8;
64114;PMS5003;62188;35.640;139.748;2022-11-02T04:12:58;12;12;
64114;PMS5003;62188;35.640;139.748;2022-11-02T04:15:24;10;10;
64114;PMS5003;62188;35.640;139.748;2022-11-02T04:17:49;10;8;
64114;PMS5003;62188;35.640;139.748;2022-11-02T04:20:15;13;11;
64114;PMS5003;62188;35.640;139.748;2022-11-02T04:22:40;11;11;
64114;PMS5003;62188;35.640;139.748;2022-11-02T04:25:06;12;12;
64114;PMS5003;62188;35.640;139.748;2022-11-02T04:27:31;12;12;
64114;PMS5003;62188;35.640;139.748;2022-11-02T04:29:56;10;9;
64114;PMS5003;62188;35.640;139.748;2022-11-02T04:32:21;12;12;
64114;PMS5003;62188;35.640;139.748;2022-11-02T04:34:47;15;13;
64114;PMS5003;62188;35.640;139.748;2022-11-02T04:37:12;13;12;
64114;PMS5003;62188;35.640;139.748;2022-11-02T04:39:37;13;12;
64114;PMS5003;62188;35.640;139.748;2022-11-02T04:42:03;16;15;
64114;PMS5003;62188;35.640;139.748;2022-11-02T04:44:28;17;16;
64114;PMS5003;62188;35.640;139.748;2022-11-02T04:46:54;16;16;
64114;PMS5003;62188;35.640;139.748;2022-11-02T04:49:19;16;16;
64114;PMS5003;62188;35.640;139.748;2022-11-02T04:51:44;18;17;
64114;PMS5003;62188;35.640;139.748;2022-11-02T04:54:10;16;15;
64114;PMS5003;62188;35.640;139.748;2022-11-02T04:56:35;16;16;
64114;PMS5003;62188;35.640;139.748;2022-11-02T04:59:01;13;13;
64114;PMS5003;62188;35.640;139.748;2022-11-02T05:01:27;17;15;
64114;PMS5003;62188;35.640;139.748;2022-11-02T05:03:51;16;15;
64114;PMS5003;62188;35.640;139.748;2022-11-02T05:06:17;15;15;
64114;PMS5003;62188;35.640;139.748;2022-11-02T05:08:42;20;19;
64114;PMS5003;62188;35.640;139.748;2022-11-02T05:11:08;20;19;
64114;PMS5003;62188;35.640;139.748;2022-11-02T05:13:33;17;16;
64114;PMS5003;62188;35.640;139.748;2022-11-02T05:15:58;20;19;
64114;PMS5003;62188;35.640;139.748;2022-11-02T05:18:24;21;20;
64114;PMS5003;62188;35.640;139.748;2022-11-02T05:20:49;22;21;
64114;PMS5003;62188;35.640;139.748;2022-11-02T05:23:15;19;19;
64114;PMS5003;62188;35.640;139.748;2022-11-02T05:25:40;24;23;
64114;PMS5003;62188;35.640;139.748;2022-11-02T05:28:05;22;22;
64114;PMS5003;62188;35.640;139.748;2022-11-02T05:30:31;23;23;
64114;PMS5003;62188;35.640;139.748;2022-11-02T05:32:56;24;22;
64114;PMS5003;62188;35.640;139.748;2022-11-02T05:35:21;21;21;
64114;PMS5003;62188;35.640;139.748;2022-11-02T05:37:46;25;23;
64114;PMS5003;62188;35.640;139.748;2022-11-02T05:40:12;22;20;
64114;PMS5003;62188;35.640;139.748;2022-11-02T05:42:37;24;21;
64114;PMS5003;62188;35.640;139.748;2022-11-02T05:45:03;20;20;
64114;PMS5003;62188;35.640;139.748;2022-11-02T05:47:28;20;17;
64114;PMS5003;62188;35.640;139.748;2022-11-02T05:49:53;15;15;
64114;PMS5003;62188;35.640;139.748;2022-11-02T05:52:19;13;12;
64114;PMS5003;62188;35.640;139.748;2022-11-02T05:54:44;14;14;
64114;PMS5003;62188;35.640;139.748;2022-11-02T05:57:10;13;12;
64114;PMS5003;62188;35.640;139.748;2022-11-02T05:59:35;14;12;
64114;PMS5003;62188;35.640;139.748;2022-11-02T06:02:01;14;12;
64114;PMS5003;62188;35.640;139.748;2022-11-02T06:04:26;11;11;
64114;PMS5003;62188;35.640;139.748;2022-11-02T06:06:51;15;14;
64114;PMS5003;62188;35.640;139.748;2022-11-02T06:09:17;15;15;
64114;PMS5003;62188;35.640;139.748;2022-11-02T06:11:42;13;13;
64114;PMS5003;62188;35.640;139.748;2022-11-02T06:14:08;13;13;
64114;PMS5003;62188;35.640;139.748;2022-11-02T06:16:33;14;12;
64114;PMS5003;62188;35.640;139.748;2022-11-02T06:18:59;14;13;
64114;PMS5003;62188;35.640;139.748;2022-11-02T06:21:24;15;12;
64114;PMS5003;62188;35.640;139.748;2022-11-02T06:23:50;12;12;
64114;PMS5003;62188;35.640;139.748;2022-11-02T06:26:15;14;13;
64114;PMS5003;62188;35.640;139.748;2022-11-02T06:28:40;12;12;
64114;PMS5003;62188;35.640;139.748;2022-11-02T06:31:06;13;12;
64114;PMS5003;62188;35.640;139.748;2022-11-02T06:33:31;15;15;
64114;PMS5003;62188;35.640;139.748;2022-11-02T06:35:57;13;13;
64114;PMS5003;62188;35.640;139.748;2022-11-02T06:38:22;14;14;
64114;PMS5003;62188;35.640;139.748;2022-11-02T06:40:53;15;14;
64114;PMS5003;62188;35.640;139.748;2022-11-02T06:43:13;13;13;
64114;PMS5003;62188;35.640;139.748;2022-11-02T06:45:38;13;13;
64114;PMS5003;62188;35.640;139.748;2022-11-02T06:48:04;14;14;
64114;PMS5003;62188;35.640;139.748;2022-11-02T06:50:29;14;12;
64114;PMS5003;62188;35.640;139.748;2022-11-02T06:52:55;13;12;
64114;PMS5003;62188;35.640;139.748;2022-11-02T06:55:20;14;14;
64114;PMS5003;62188;35.640;139.748;2022-11-02T06:57:46;17;15;
64114;PMS5003;62188;35.640;139.748;2022-11-02T07:00:13;13;12;
64114;PMS5003;62188;35.640;139.748;2022-11-02T07:02:37;15;14;
64114;PMS5003;62188;35.640;139.748;2022-11-02T07:05:03;14;14;
64114;PMS5003;62188;35.640;139.748;2022-11-02T07:07:28;14;13;
64114;PMS5003;62188;35.640;139.748;2022-11-02T07:09:53;15;15;
64114;PMS5003;62188;35.640;139.748;2022-11-02T07:12:18;15;15;
64114;PMS5003;62188;35.640;139.748;2022-11-02T07:14:44;15;15;
64114;PMS5003;62188;35.640;139.748;2022-11-02T07:17:09;14;14;
64114;PMS5003;62188;35.640;139.748;2022-11-02T07:19:35;13;13;
64114;PMS5003;62188;35.640;139.748;2022-11-02T07:22:00;16;15;
64114;PMS5003;62188;35.640;139.748;2022-11-02T07:24:26;16;15;
64114;PMS5003;62188;35.640;139.748;2022-11-02T07:26:51;17;16;
64114;PMS5003;62188;35.640;139.748;2022-11-02T07:29:16;19;18;
64114;PMS5003;62188;35.640;139.748;2022-11-02T07:31:41;18;17;
64114;PMS5003;62188;35.640;139.748;2022-11-02T07:34:07;19;18;
64114;PMS5003;62188;35.640;139.748;2022-11-02T07:36:32;17;16;
64114;PMS5003;62188;35.640;139.748;2022-11-02T07:38:57;16;15;
64114;PMS5003;62188;35.640;139.748;2022-11-02T07:41:23;15;15;
64114;PMS5003;62188;35.640;139.748;2022-11-02T07:43:48;19;18;
64114;PMS5003;62188;35.640;139.748;2022-11-02T07:46:13;18;17;
64114;PMS5003;62188;35.640;139.748;2022-11-02T07:48:39;16;16;
64114;PMS5003;62188;35.640;139.748;2022-11-02T07:51:04;14;14;
64114;PMS5003;62188;35.640;139.748;2022-11-02T07:53:29;16;14;
64114;PMS5003;62188;35.640;139.748;2022-11-02T07:55:54;19;14;
64114;PMS5003;62188;35.640;139.748;2022-11-02T07:58:20;16;16;
64114;PMS5003;62188;35.640;139.748;2022-11-02T08:00:46;19;19;
64114;PMS5003;62188;35.640;139.748;2022-11-02T08:03:11;18;18;
64114;PMS5003;62188;35.640;139.748;2022-11-02T08:05:37;16;16;
64114;PMS5003;62188;35.640;139.748;2022-11-02T08:08:03;15;15;
64114;PMS5003;62188;35.640;139.748;2022-11-02T08:10:28;23;23;
64114;PMS5003;62188;35.640;139.748;2022-11-02T08:12:53;18;17;
64114;PMS5003;62188;35.640;139.748;2022-11-02T08:15:18;20;20;
64114;PMS5003;62188;35.640;139.748;2022-11-02T08:17:43;22;20;
64114;PMS5003;62188;35.640;139.748;2022-11-02T08:20:09;17;17;
64114;PMS5003;62188;35.640;139.748;2022-11-02T08:22:36;20;20;
64114;PMS5003;62188;35.640;139.748;2022-11-02T08:25:00;19;18;
64114;PMS5003;62188;35.640;139.748;2022-11-02T08:27:25;18;18;
64114;PMS5003;62188;35.640;139.748;2022-11-02T08:29:51;19;18;
64114;PMS5003;62188;35.640;139.748;2022-11-02T08:32:16;18;18;
64114;PMS5003;62188;35.640;139.748;2022-11-02T08:34:42;20;20;
64114;PMS5003;62188;35.640;139.748;2022-11-02T08:37:07;21;19;
64114;PMS5003;62188;35.640;139.748;2022-11-02T08:39:33;22;21;
64114;PMS5003;62188;35.640;139.748;2022-11-02T08:41:58;15;15;
64114;PMS5003;62188;35.640;139.748;2022-11-02T08:44:23;16;16;
64114;PMS5003;62188;35.640;139.748;2022-11-02T08:46:49;18;18;
64114;PMS5003;62188;35.640;139.748;2022-11-02T08:49:14;21;18;
64114;PMS5003;62188;35.640;139.748;2022-11-02T08:51:39;18;18;
64114;PMS5003;62188;35.640;139.748;2022-11-02T08:54:04;18;18;
64114;PMS5003;62188;35.640;139.748;2022-11-02T08:56:30;23;23;
64114;PMS5003;62188;35.640;139.748;2022-11-02T08:58:55;21;20;
64114;PMS5003;62188;35.640;139.748;2022-11-02T09:01:21;19;18;
64114;PMS5003;62188;35.640;139.748;2022-11-02T09:03:46;24;22;
64114;PMS5003;62188;35.640;139.748;2022-11-02T09:06:11;31;28;
64114;PMS5003;62188;35.640;139.748;2022-11-02T09:08:37;29;27;
64114;PMS5003;62188;35.640;139.748;2022-11-02T09:11:02;30;29;
64114;PMS5003;62188;35.640;139.748;2022-11-02T09:13:28;26;26;
64114;PMS5003;62188;35.640;139.748;2022-11-02T09:15:54;27;27;
64114;PMS5003;62188;35.640;139.748;2022-11-02T09:18:19;29;27;
64114;PMS5003;62188;35.640;139.748;2022-11-02T09:20:44;23;23;
64114;PMS5003;62188;35.640;139.748;2022-11-02T09:23:09;26;25;
64114;PMS5003;62188;35.640;139.748;2022-11-02T09:25:35;26;25;
64114;PMS5003;62188;35.640;139.748;2022-11-02T09:28:00;22;22;
64114;PMS5003;62188;35.640;139.748;2022-11-02T09:30:26;20;20;
64114;PMS5003;62188;35.640;139.748;2022-11-02T09:32:54;23;23;
64114;PMS5003;62188;35.640;139.748;2022-11-02T09:35:17;24;23;
64114;PMS5003;62188;35.640;139.748;2022-11-02T09:37:42;28;25;
64114;PMS5003;62188;35.640;139.748;2022-11-02T09:40:08;25;23;
64114;PMS5003;62188;35.640;139.748;2022-11-02T09:42:34;23;23;
64114;PMS5003;62188;35.640;139.748;2022-11-02T09:44:59;24;24;
64114;PMS5003;62188;35.640;139.748;2022-11-02T09:47:24;22;22;
64114;PMS5003;62188;35.640;139.748;2022-11-02T09:49:49;26;24;
64114;PMS5003;62188;35.640;139.748;2022-11-02T09:52:18;30;29;
64114;PMS5003;62188;35.640;139.748;2022-11-02T09:54:41;24;24;
64114;PMS5003;62188;35.640;139.748;2022-11-02T09:57:08;22;21;
64114;PMS5003;62188;35.640;139.748;2022-11-02T09:59:31;23;21;
64114;PMS5003;62188;35.640;139.748;2022-11-02T10:01:59;24;22;
64114;PMS5003;62188;35.640;139.748;2022-11-02T10:04:29;19;19;
64114;PMS5003;62188;35.640;139.748;2022-11-02T10:06:52;19;18;
64114;PMS5003;62188;35.640;139.748;2022-11-02T10:09:14;17;17;
64114;PMS5003;62188;35.640;139.748;2022-11-02T10:11:40;18;17;
64114;PMS5003;62188;35.640;139.748;2022-11-02T10:14:04;15;15;
64114;PMS5003;62188;35.640;139.748;2022-11-02T10:16:31;14;14;
64114;PMS5003;62188;35.640;139.748;2022-11-02T10:18:54;13;12;
64114;PMS5003;62188;35.640;139.748;2022-11-02T10:21:20;12;12;
64114;PMS5003;62188;35.640;139.748;2022-11-02T10:23:46;14;13;
64114;PMS5003;62188;35.640;139.748;2022-11-02T10:26:12;21;16;
64114;PMS5003;62188;35.640;139.748;2022-11-02T10:28:37;14;13;
64114;PMS5003;62188;35.640;139.748;2022-11-02T10:31:01;13;12;
64114;PMS5003;62188;35.640;139.748;2022-11-02T10:33:27;11;11;
64114;PMS5003;62188;35.640;139.748;2022-11-02T10:35:54;12;11;
64114;PMS5003;62188;35.640;139.748;2022-11-02T10:38:21;13;13;
64114;PMS5003;62188;35.640;139.748;2022-11-02T10:40:47;14;12;
64114;PMS5003;62188;35.640;139.748;2022-11-02T10:43:11;12;11;
64114;PMS5003;62188;35.640;139.748;2022-11-02T10:48:01;11;11;
64114;PMS5003;62188;35.640;139.748;2022-11-02T10:50:28;11;9;
64114;PMS5003;62188;35.640;139.748;2022-11-02T10:52:50;10;9;
64114;PMS5003;62188;35.640;139.748;2022-11-02T10:55:20;12;12;
64114;PMS5003;62188;35.640;139.748;2022-11-02T10:57:41;16;16;
64114;PMS5003;62188;35.640;139.748;2022-11-02T11:02:32;17;16;
64114;PMS5003;62188;35.640;139.748;2022-11-02T11:05:01;14;14;
64114;PMS5003;62188;35.640;139.748;2022-11-02T11:07:24;14;13;
64114;PMS5003;62188;35.640;139.748;2022-11-02T11:09:49;13;13;
64114;PMS5003;62188;35.640;139.748;2022-11-02T11:12:15;17;13;
64114;PMS5003;62188;35.640;139.748;2022-11-02T11:14:43;13;13;
64114;PMS5003;62188;35.640;139.748;2022-11-02T11:19:32;19;15;
64114;PMS5003;62188;35.640;139.748;2022-11-02T11:21:55;14;13;
64114;PMS5003;62188;35.640;139.748;2022-11-02T11:24:22;13;12;
64114;PMS5003;62188;35.640;139.748;2022-11-02T11:31:37;14;14;
64114;PMS5003;62188;35.640;139.748;2022-11-02T11:34:03;15;14;
64114;PMS5003;62188;35.640;139.748;2022-11-02T11:36:29;13;13;
64114;PMS5003;62188;35.640;139.748;2022-11-02T11:38:54;14;14;
64114;PMS5003;62188;35.640;139.748;2022-11-02T11:41:19;16;14;
64114;PMS5003;62188;35.640;139.748;2022-11-02T11:43:45;14;14;
64114;PMS5003;62188;35.640;139.748;2022-11-02T11:46:11;13;13;
64114;PMS5003;62188;35.640;139.748;2022-11-02T11:48:37;16;14;
64114;PMS5003;62188;35.640;139.748;2022-11-02T11:51:02;17;16;
64114;PMS5003;62188;35.640;139.748;2022-11-02T11:53:27;15;15;
64114;PMS5003;62188;35.640;139.748;2022-11-02T11:55:53;16;16;
64114;PMS5003;62188;35.640;139.748;2022-11-02T11:58:19;17;16;
64114;PMS5003;62188;35.640;139.748;2022-11-02T12:00:43;18;17;
64114;PMS5003;62188;35.640;139.748;2022-11-02T12:03:09;18;18;
64114;PMS5003;62188;35.640;139.748;2022-11-02T12:05:36;19;17;
64114;PMS5003;62188;35.640;139.748;2022-11-02T12:08:05;21;18;
64114;PMS5003;62188;35.640;139.748;2022-11-02T12:10:29;20;18;
64114;PMS5003;62188;35.640;139.748;2022-11-02T12:12:57;17;17;
64114;PMS5003;62188;35.640;139.748;2022-11-02T12:15:19;20;19;
64114;PMS5003;62188;35.640;139.748;2022-11-02T12:17:45;21;21;
64114;PMS5003;62188;35.640;139.748;2022-11-02T12:22:35;21;18;
64114;PMS5003;62188;35.640;139.748;2022-11-02T12:25:04;19;19;
64114;PMS5003;62188;35.640;139.748;2022-11-02T12:27:26;18;16;
64114;PMS5003;62188;35.640;139.748;2022-11-02T12:29:52;18;18;
64114;PMS5003;62188;35.640;139.748;2022-11-02T12:32:16;14;13;
64114;PMS5003;62188;35.640;139.748;2022-11-02T12:34:50;17;17;
64114;PMS5003;62188;35.640;139.748;2022-11-02T12:37:07;16;15;
64114;PMS5003;62188;35.640;139.748;2022-11-02T12:39:31;17;17;
64114;PMS5003;62188;35.640;139.748;2022-11-02T12:41:58;16;16;
64114;PMS5003;62188;35.640;139.748;2022-11-02T12:44:25;16;16;
64114;PMS5003;62188;35.640;139.748;2022-11-02T12:46:48;16;15;
64114;PMS5003;62188;35.640;139.748;2022-11-02T12:49:18;17;17;
64114;PMS5003;62188;35.640;139.748;2022-11-02T12:51:37;22;21;
64114;PMS5003;62188;35.640;139.748;2022-11-02T12:54:03;16;15;
64114;PMS5003;62188;35.640;139.748;2022-11-02T12:56:29;15;15;
64114;PMS5003;62188;35.640;139.748;2022-11-02T12:58:52;14;14;
64114;PMS5003;62188;35.640;139.748;2022-11-02T13:01:19;14;14;
64114;PMS5003;62188;35.640;139.748;2022-11-02T13:03:46;16;16;
64114;PMS5003;62188;35.640;139.748;2022-11-02T13:06:11;12;12;
64114;PMS5003;62188;35.640;139.748;2022-11-02T13:08:37;15;15;
64114;PMS5003;62188;35.640;139.748;2022-11-02T13:11:02;14;14;
64114;PMS5003;62188;35.640;139.748;2022-11-02T13:13:27;14;14;
64114;PMS5003;62188;35.640;139.748;2022-11-02T13:15:51;18;17;
64114;PMS5003;62188;35.640;139.748;2022-11-02T13:18:17;18;16;
64114;PMS5003;62188;35.640;139.748;2022-11-02T13:20:43;24;19;
64114;PMS5003;62188;35.640;139.748;2022-11-02T13:23:10;17;17;
64114;PMS5003;62188;35.640;139.748;2022-11-02T13:25:33;20;18;
64114;PMS5003;62188;35.640;139.748;2022-11-02T13:27:59;20;19;
64114;PMS5003;62188;35.640;139.748;2022-11-02T13:30:25;18;18;
64114;PMS5003;62188;35.640;139.748;2022-11-02T13:32:50;18;18;
64114;PMS5003;62188;35.640;139.748;2022-11-02T13:35:16;23;21;
64114;PMS5003;62188;35.640;139.748;2022-11-02T13:37:43;22;22;
64114;PMS5003;62188;35.640;139.748;2022-11-02T13:40:07;25;22;
64114;PMS5003;62188;35.640;139.748;2022-11-02T13:42:39;26;25;
64114;PMS5003;62188;35.640;139.748;2022-11-02T13:44:59;22;22;
64114;PMS5003;62188;35.640;139.748;2022-11-02T13:47:25;23;23;
64114;PMS5003;62188;35.640;139.748;2022-11-02T13:49:48;22;21;
64114;PMS5003;62188;35.640;139.748;2022-11-02T13:52:13;20;20;
64114;PMS5003;62188;35.640;139.748;2022-11-02T13:54:39;22;20;
64114;PMS5003;62188;35.640;139.748;2022-11-02T13:57:03;19;16;
64114;PMS5003;62188;35.640;139.748;2022-11-02T13:59:30;18;17;
64114;PMS5003;62188;35.640;139.748;2022-11-02T14:01:54;20;19;
64114;PMS5003;62188;35.640;139.748;2022-11-02T14:04:19;20;18;
64114;PMS5003;62188;35.640;139.748;2022-11-02T14:06:47;20;20;
64114;PMS5003;62188;35.640;139.748;2022-11-02T14:09:16;23;22;
64114;PMS5003;62188;35.640;139.748;2022-11-02T14:11:44;24;23;
64114;PMS5003;62188;35.640;139.748;2022-11-02T14:23:43;22;20;
64114;PMS5003;62188;35.640;139.748;2022-11-02T14:28:39;18;17;
64114;PMS5003;62188;35.640;139.748;2022-11-02T14:31:14;21;19;
64114;PMS5003;62188;35.640;139.748;2022-11-02T14:35:52;22;22;
64114;PMS5003;62188;35.640;139.748;2022-11-02T14:38:20;25;24;
64114;PMS5003;62188;35.640;139.748;2022-11-02T14:40:44;22;21;
64114;PMS5003;62188;35.640;139.748;2022-11-02T14:43:26;22;22;
64114;PMS5003;62188;35.640;139.748;2022-11-02T14:45:35;22;21;
64114;PMS5003;62188;35.640;139.748;2022-11-02T14:47:59;22;21;
64114;PMS5003;62188;35.640;139.748;2022-11-02T14:50:23;23;20;
64114;PMS5003;62188;35.640;139.748;2022-11-02T14:52:54;19;19;
64114;PMS5003;62188;35.640;139.748;2022-11-02T14:55:20;21;20;
64114;PMS5003;62188;35.640;139.748;2022-11-02T14:57:40;20;20;
64114;PMS5003;62188;35.640;139.748;2022-11-02T15:02:32;20;20;
64114;PMS5003;62188;35.640;139.748;2022-11-02T15:04:57;22;19;
64114;PMS5003;62188;35.640;139.748;2022-11-02T15:07:25;20;18;
64114;PMS5003;62188;35.640;139.748;2022-11-02T15:09:55;18;17;
64114;PMS5003;62188;35.640;139.748;2022-11-02T15:17:11;21;21;
64114;PMS5003;62188;35.640;139.748;2022-11-02T15:24:21;22;21;
64114;PMS5003;62188;35.640;139.748;2022-11-02T15:26:47;22;19;
64114;PMS5003;62188;35.640;139.748;2022-11-02T15:29:14;18;17;
64114;PMS5003;62188;35.640;139.748;2022-11-02T15:31:36;19;18;
64114;PMS5003;62188;35.640;139.748;2022-11-02T15:34:02;19;18;
64114;PMS5003;62188;35.640;139.748;2022-11-02T15:36:27;22;21;
64114;PMS5003;62188;35.640;139.748;2022-11-02T15:38:52;23;20;
64114;PMS5003;62188;35.640;139.748;2022-11-02T15:41:20;18;18;
64114;PMS5003;62188;35.640;139.748;2022-11-02T15:46:09;22;19;
64114;PMS5003;62188;35.640;139.748;2022-11-02T15:48:36;21;20;
64114;PMS5003;62188;35.640;139.748;2022-11-02T15:51:00;17;17;
64114;PMS5003;62188;35.640;139.748;2022-11-02T15:53:32;19;18;
64114;PMS5003;62188;35.640;139.748;2022-11-02T15:55:53;21;20;
64114;PMS5003;62188;35.640;139.748;2022-11-02T15:58:18;18;18;
64114;PMS5003;62188;35.640;139.748;2022-11-02T16:00:41;18;18;
64114;PMS5003;62188;35.640;139.748;2022-11-02T16:03:07;18;18;
64114;PMS5003;62188;35.640;139.748;2022-11-02T16:05:32;16;15;
64114;PMS5003;62188;35.640;139.748;2022-11-02T16:07:57;16;16;
64114;PMS5003;62188;35.640;139.748;2022-11-02T16:10:24;17;16;
64114;PMS5003;62188;35.640;139.748;2022-11-02T16:15:16;25;24;
64114;PMS5003;62188;35.640;139.748;2022-11-02T16:17:39;22;19;
64114;PMS5003;62188;35.640;139.748;2022-11-02T16:20:09;18;18;
64114;PMS5003;62188;35.640;139.748;2022-11-02T16:22:30;21;18;
64114;PMS5003;62188;35.640;139.748;2022-11-02T16:24:55;23;21;
64114;PMS5003;62188;35.640;139.748;2022-11-02T16:27:21;20;19;
64114;PMS5003;62188;35.640;139.748;2022-11-02T16:29:46;25;18;
64114;PMS5003;62188;35.640;139.748;2022-11-02T16:32:11;20;20;
64114;PMS5003;62188;35.640;139.748;2022-11-02T16:34:37;21;21;